createdAt,value
2022-10-15T00:01:38.090Z,42.70
2022-10-15T00:04:06.712Z,43.80
2022-10-15T00:06:35.829Z,47.20
2022-10-15T00:09:04.943Z,51.50
2022-10-15T00:11:34.584Z,47.10
2022-10-15T00:14:03.209Z,45.70
2022-10-15T00:16:32.940Z,40.60
2022-10-15T00:19:01.566Z,41.60
2022-10-15T00:21:30.481Z,41.40
2022-10-15T00:23:59.470Z,39.30
2022-10-15T00:26:28.823Z,40.80
2022-10-15T00:28:58.868Z,40.80
2022-10-15T00:31:28.698Z,46.20
2022-10-15T00:33:59.353Z,49.90
2022-10-15T00:36:29.450Z,45.10
2022-10-15T00:38:58.209Z,38.10
2022-10-15T00:41:31.482Z,45.50
2022-10-15T00:46:37.296Z,42.10
2022-10-15T00:49:12.870Z,44.00
2022-10-15T00:51:43.007Z,38.70
2022-10-15T00:54:12.072Z,43.30
2022-10-15T00:56:42.588Z,35.80
2022-10-15T00:59:13.068Z,47.70
2022-10-15T01:01:42.084Z,40.40
2022-10-15T01:04:11.438Z,41.20
2022-10-15T01:06:40.047Z,39.00
2022-10-15T01:09:08.811Z,38.50
2022-10-15T01:11:47.600Z,39.20
2022-10-15T01:14:25.102Z,38.00
2022-10-15T01:16:56.780Z,37.30
2022-10-15T01:19:44.464Z,34.10
2022-10-15T01:22:13.389Z,38.40
2022-10-15T01:25:00.995Z,41.30
2022-10-15T01:27:43.233Z,41.90
2022-10-15T01:30:16.933Z,37.40
2022-10-15T01:33:00.632Z,36.40
2022-10-15T01:35:37.561Z,34.40
2022-10-15T01:38:32.391Z,36.70
2022-10-15T01:41:04.519Z,40.70
2022-10-15T01:43:37.233Z,34.90
2022-10-15T01:46:08.809Z,33.30
2022-10-15T01:48:37.857Z,36.90
2022-10-15T01:51:07.092Z,35.30
2022-10-15T01:53:36.539Z,32.80
2022-10-15T01:56:07.905Z,35.90
2022-10-15T01:58:42.173Z,37.60
2022-10-15T02:01:10.914Z,33.50
2022-10-15T02:03:49.973Z,33.30
2022-10-15T02:06:21.999Z,32.50
2022-10-15T02:09:16.790Z,34.30
2022-10-15T02:12:04.544Z,34.70
2022-10-15T02:14:54.787Z,37.30
2022-10-15T02:17:41.030Z,39.90
2022-10-15T02:20:15.708Z,31.60
2022-10-15T02:22:47.857Z,28.10
2022-10-15T02:25:22.604Z,33.90
2022-10-15T02:27:52.677Z,31.60
2022-10-15T02:30:21.456Z,31.40
2022-10-15T02:32:55.003Z,33.80
2022-10-15T02:35:24.007Z,34.90
2022-10-15T02:37:53.976Z,29.80
2022-10-15T02:40:25.013Z,24.90
2022-10-15T02:42:54.059Z,31.70
2022-10-15T02:45:22.781Z,29.40
2022-10-15T02:47:51.421Z,29.60
2022-10-15T02:50:20.029Z,35.20
2022-10-15T02:52:49.088Z,34.80
2022-10-15T02:55:18.002Z,26.00
2022-10-15T02:57:46.643Z,26.60
2022-10-15T03:00:15.656Z,27.10
2022-10-15T03:02:44.768Z,31.00
2022-10-15T03:05:13.771Z,26.80
2022-10-15T03:07:42.376Z,30.80
2022-10-15T03:10:11.179Z,35.30
2022-10-15T03:12:39.798Z,26.30
2022-10-15T03:15:08.819Z,32.20
2022-10-15T03:17:37.564Z,28.60
2022-10-15T03:20:06.465Z,31.10
2022-10-15T03:22:35.114Z,28.80
2022-10-15T03:25:04.080Z,29.40
2022-10-15T03:27:32.753Z,33.70
2022-10-15T03:30:01.312Z,39.40
2022-10-15T03:32:33.011Z,32.10
2022-10-15T03:35:04.384Z,32.00
2022-10-15T03:37:33.213Z,33.90
2022-10-15T03:40:01.916Z,33.10
2022-10-15T03:42:30.545Z,36.10
2022-10-15T03:44:59.187Z,35.70
2022-10-15T03:47:27.841Z,43.60
2022-10-15T03:49:56.452Z,35.90
2022-10-15T03:52:25.984Z,32.40
2022-10-15T03:54:54.803Z,34.90
2022-10-15T03:57:23.661Z,35.40
2022-10-15T03:59:52.246Z,33.00
2022-10-15T04:02:21.096Z,39.10
2022-10-15T04:04:53.647Z,46.40
2022-10-15T04:07:22.451Z,34.60
2022-10-15T04:09:51.080Z,33.40
2022-10-15T04:12:19.758Z,38.70
2022-10-15T04:14:48.518Z,34.20
2022-10-15T04:17:17.820Z,35.10
2022-10-15T04:19:46.602Z,36.80
2022-10-15T04:22:15.421Z,37.90
2022-10-15T04:24:43.996Z,39.50
2022-10-15T04:27:16.403Z,33.00
2022-10-15T04:29:47.135Z,28.70
2022-10-15T04:32:16.324Z,30.60
2022-10-15T04:34:46.500Z,32.70
2022-10-15T04:37:15.182Z,27.20
2022-10-15T04:39:43.810Z,33.00
2022-10-15T04:42:12.453Z,33.40
2022-10-15T04:44:41.072Z,37.00
2022-10-15T04:47:09.654Z,27.30
2022-10-15T04:49:38.344Z,25.90
2022-10-15T04:52:06.995Z,27.60
2022-10-15T04:54:35.662Z,29.20
2022-10-15T04:57:05.174Z,31.10
2022-10-15T04:59:33.905Z,30.60
2022-10-15T05:02:02.607Z,33.50
2022-10-15T05:04:31.374Z,32.40
2022-10-15T05:07:00.002Z,32.10
2022-10-15T05:09:28.592Z,29.00
2022-10-15T05:11:57.312Z,27.20
2022-10-15T05:14:26.153Z,31.10
2022-10-15T05:16:54.759Z,30.30
2022-10-15T05:19:23.367Z,31.20
2022-10-15T05:21:51.969Z,34.00
2022-10-15T05:24:20.637Z,35.90
2022-10-15T05:26:49.286Z,30.40
2022-10-15T05:29:17.908Z,30.20
2022-10-15T05:31:46.560Z,34.50
2022-10-15T05:34:15.487Z,31.50
2022-10-15T05:36:44.108Z,30.60
2022-10-15T05:39:14.233Z,31.90
2022-10-15T05:41:43.076Z,34.30
2022-10-15T05:44:11.688Z,27.50
2022-10-15T05:46:40.304Z,31.10
2022-10-15T05:49:08.989Z,29.80
2022-10-15T05:51:37.947Z,29.00
2022-10-15T05:54:06.585Z,30.30
2022-10-15T05:56:35.250Z,33.60
2022-10-15T05:59:04.819Z,32.40
2022-10-15T06:01:33.570Z,32.20
2022-10-15T06:04:02.366Z,31.60
2022-10-15T06:06:31.018Z,32.10
2022-10-15T06:09:01.836Z,34.60
2022-10-15T06:11:30.434Z,31.00
2022-10-15T06:13:59.052Z,37.50
2022-10-15T06:16:27.693Z,35.20
2022-10-15T06:18:56.348Z,38.10
2022-10-15T06:21:25.034Z,31.60
2022-10-15T06:23:53.679Z,30.80
2022-10-15T06:26:22.416Z,36.70
2022-10-15T06:28:51.091Z,36.30
2022-10-15T06:31:19.813Z,35.90
2022-10-15T06:33:48.470Z,37.10
2022-10-15T06:36:17.482Z,37.30
2022-10-15T06:38:47.109Z,33.60
2022-10-15T06:41:16.734Z,32.10
2022-10-15T06:43:46.202Z,32.30
2022-10-15T06:46:14.946Z,31.70
2022-10-15T06:48:43.584Z,32.30
2022-10-15T06:51:12.338Z,32.10
2022-10-15T06:53:42.311Z,32.40
2022-10-15T06:56:10.943Z,32.30
2022-10-15T06:58:41.485Z,36.30
2022-10-15T07:01:10.509Z,33.00
2022-10-15T07:03:39.287Z,37.60
2022-10-15T07:06:08.697Z,34.60
2022-10-15T07:08:37.424Z,34.10
2022-10-15T07:11:07.056Z,33.40
2022-10-15T07:13:35.924Z,37.20
2022-10-15T07:16:05.901Z,34.20
2022-10-15T07:18:35.088Z,36.50
2022-10-15T07:21:04.928Z,32.80
2022-10-15T07:23:33.691Z,34.20
2022-10-15T07:26:02.524Z,38.60
2022-10-15T07:28:31.250Z,35.60
2022-10-15T07:31:00.776Z,37.00
2022-10-15T07:33:29.400Z,35.40
2022-10-15T07:35:58.107Z,33.40
2022-10-15T07:38:26.732Z,34.70
2022-10-15T07:40:58.017Z,39.80
2022-10-15T07:43:26.761Z,38.50
2022-10-15T07:45:55.527Z,32.00
2022-10-15T07:48:25.186Z,32.60
2022-10-15T07:50:57.888Z,39.40
2022-10-15T07:53:27.620Z,35.20
2022-10-15T07:56:04.088Z,33.70
2022-10-15T07:58:34.696Z,32.30
2022-10-15T08:01:04.163Z,36.80
2022-10-15T08:03:33.020Z,30.80
2022-10-15T08:06:05.935Z,32.40
2022-10-15T08:11:10.734Z,26.70
2022-10-15T08:13:41.356Z,33.30
2022-10-15T08:16:11.142Z,30.30
2022-10-15T08:18:39.943Z,31.90
2022-10-15T08:21:09.148Z,26.70
2022-10-15T08:23:38.174Z,29.00
2022-10-15T08:26:06.968Z,27.60
2022-10-15T08:28:35.810Z,25.90
2022-10-15T08:31:05.971Z,26.10
2022-10-15T08:33:35.490Z,26.20
2022-10-15T08:36:07.451Z,26.10
2022-10-15T08:38:36.088Z,27.70
2022-10-15T08:41:14.239Z,25.90
2022-10-15T08:43:43.696Z,28.50
2022-10-15T08:46:18.974Z,24.70
2022-10-15T08:48:49.927Z,23.40
2022-10-15T08:51:20.183Z,22.80
2022-10-15T08:53:51.188Z,21.90
2022-10-15T08:56:21.213Z,21.10
2022-10-15T08:58:52.977Z,20.10
2022-10-15T09:01:28.951Z,19.70
2022-10-15T09:03:57.545Z,23.70
2022-10-15T09:06:28.579Z,21.70
2022-10-15T09:08:57.241Z,20.90
2022-10-15T09:11:34.822Z,21.60
2022-10-15T09:14:05.908Z,22.60
2022-10-15T09:16:37.402Z,23.80
2022-10-15T09:19:10.090Z,20.20
2022-10-15T09:21:38.904Z,17.70
2022-10-15T09:24:10.124Z,17.60
2022-10-15T09:26:51.317Z,16.60
2022-10-15T09:29:32.173Z,17.90
2022-10-15T09:32:03.748Z,16.30
2022-10-15T09:34:37.748Z,15.40
2022-10-15T09:37:11.847Z,14.50
2022-10-15T09:39:58.986Z,20.00
2022-10-15T09:42:27.712Z,15.80
2022-10-15T09:44:59.232Z,16.60
2022-10-15T09:47:35.817Z,16.60
2022-10-15T09:50:05.428Z,20.00
2022-10-15T09:52:54.373Z,18.50
2022-10-15T09:55:23.641Z,21.70
2022-10-15T09:57:53.615Z,18.90
2022-10-15T10:00:22.371Z,17.00
2022-10-15T10:03:17.154Z,20.70
2022-10-15T10:05:48.718Z,20.10
2022-10-15T10:08:24.697Z,21.00
2022-10-15T10:10:55.116Z,22.90
2022-10-15T10:13:25.448Z,18.30
2022-10-15T10:15:58.367Z,18.90
2022-10-15T10:18:28.485Z,18.10
2022-10-15T10:21:01.733Z,18.00
2022-10-15T10:23:32.124Z,20.40
2022-10-15T10:26:05.703Z,21.10
2022-10-15T10:28:34.431Z,14.90
2022-10-15T10:31:07.728Z,65.00
2022-10-15T10:33:42.503Z,29.30
2022-10-15T10:36:21.911Z,16.60
2022-10-15T10:39:05.861Z,15.90
2022-10-15T10:41:54.411Z,16.90
2022-10-15T10:44:23.047Z,13.80
2022-10-15T10:47:03.787Z,14.90
2022-10-15T10:49:36.340Z,18.60
2022-10-15T10:52:05.845Z,14.30
2022-10-15T10:54:34.614Z,14.60
2022-10-15T10:57:04.442Z,16.20
2022-10-15T10:59:35.688Z,16.30
2022-10-15T11:02:09.262Z,15.50
2022-10-15T11:04:38.830Z,12.30
2022-10-15T11:07:26.141Z,16.50
2022-10-15T11:10:08.390Z,12.30
2022-10-15T11:12:55.988Z,11.60
2022-10-15T11:15:40.241Z,9.50
2022-10-15T11:18:27.668Z,10.60
2022-10-15T11:21:14.690Z,10.40
2022-10-15T11:23:55.376Z,11.50
2022-10-15T11:26:27.030Z,11.30
2022-10-15T11:29:14.706Z,9.30
2022-10-15T11:32:14.616Z,10.40
2022-10-15T11:35:07.311Z,11.50
2022-10-15T11:38:02.932Z,14.70
2022-10-15T11:40:46.876Z,12.60
2022-10-15T11:43:15.501Z,8.00
2022-10-15T11:45:53.205Z,11.90
2022-10-15T11:48:40.468Z,9.60
2022-10-15T11:51:15.534Z,14.40
2022-10-15T11:53:53.821Z,9.20
2022-10-15T11:56:28.599Z,12.40
2022-10-15T11:59:00.724Z,13.70
2022-10-15T12:01:50.084Z,12.10
2022-10-15T12:04:37.443Z,13.40
2022-10-15T12:07:07.215Z,12.60
2022-10-15T12:09:37.978Z,15.20
2022-10-15T12:12:11.336Z,10.60
2022-10-15T12:14:42.819Z,14.00
2022-10-15T12:17:23.992Z,10.10
2022-10-15T12:19:55.527Z,14.10
2022-10-15T12:22:35.843Z,8.80
2022-10-15T12:25:05.877Z,12.20
2022-10-15T12:27:35.637Z,9.90
2022-10-15T12:30:04.241Z,11.30
2022-10-15T12:32:49.030Z,18.70
2022-10-15T12:37:54.010Z,13.50
2022-10-15T12:40:22.591Z,14.20
2022-10-15T12:43:03.042Z,10.90
2022-10-15T12:45:39.220Z,11.00
2022-10-15T12:48:09.344Z,10.20
2022-10-15T12:50:38.115Z,13.90
2022-10-15T12:53:07.296Z,11.90
2022-10-15T12:55:37.445Z,12.10
2022-10-15T12:58:26.529Z,13.50
2022-10-15T13:00:55.135Z,12.80
2022-10-15T13:03:42.458Z,13.40
2022-10-15T13:06:16.579Z,12.90
2022-10-15T13:08:46.973Z,12.00
2022-10-15T13:11:19.467Z,14.10
2022-10-15T13:16:17.126Z,19.40
2022-10-15T13:18:49.425Z,11.20
2022-10-15T13:21:18.077Z,15.30
2022-10-15T13:23:51.178Z,14.80
2022-10-15T13:26:30.215Z,16.30
2022-10-15T13:28:58.912Z,16.10
2022-10-15T13:31:31.825Z,13.50
2022-10-15T13:34:11.115Z,11.10
2022-10-15T13:36:39.870Z,13.20
2022-10-15T13:39:20.557Z,13.20
2022-10-15T13:41:49.447Z,14.40
2022-10-15T13:44:22.645Z,14.40
2022-10-15T13:46:51.464Z,13.10
2022-10-15T13:49:21.501Z,15.70
2022-10-15T13:51:52.991Z,15.50
2022-10-15T13:54:23.818Z,16.00
2022-10-15T13:56:55.647Z,19.20
2022-10-15T13:59:25.468Z,14.10
2022-10-15T14:02:00.851Z,16.80
2022-10-15T14:04:31.274Z,18.30
2022-10-15T14:07:04.212Z,15.90
2022-10-15T14:09:37.137Z,28.00
2022-10-15T14:12:06.725Z,15.20
2022-10-15T14:14:49.534Z,14.80
2022-10-15T14:19:51.489Z,13.50
2022-10-15T14:22:31.754Z,14.90
2022-10-15T14:25:07.770Z,15.80
2022-10-15T14:27:36.565Z,19.10
2022-10-15T14:30:13.698Z,14.50
2022-10-15T14:32:47.143Z,15.70
2022-10-15T14:35:24.083Z,17.80
2022-10-15T14:38:03.352Z,13.70
2022-10-15T14:40:32.097Z,16.70
2022-10-15T14:43:05.281Z,20.40
2022-10-15T14:45:43.271Z,18.40
2022-10-15T14:48:25.398Z,13.90
2022-10-15T14:50:57.803Z,14.30
2022-10-15T14:53:31.971Z,14.60
2022-10-15T14:56:02.040Z,17.10
2022-10-15T14:58:30.968Z,15.00
2022-10-15T15:01:00.991Z,15.50
2022-10-15T15:03:31.943Z,24.90
2022-10-15T15:06:04.704Z,16.80
2022-10-15T15:08:36.129Z,18.10
2022-10-15T15:11:10.781Z,15.30
2022-10-15T15:13:41.202Z,16.40
2022-10-15T15:16:12.233Z,21.00
2022-10-15T15:18:46.368Z,14.40
2022-10-15T15:21:21.334Z,17.90
2022-10-15T15:23:50.356Z,19.10
2022-10-15T15:26:19.146Z,21.60
2022-10-15T15:28:49.366Z,15.80
2022-10-15T15:31:21.580Z,18.00
2022-10-15T15:33:50.517Z,21.50
2022-10-15T15:36:22.628Z,16.60
2022-10-15T15:38:53.607Z,14.50
2022-10-15T15:41:23.077Z,19.50
2022-10-15T15:43:53.742Z,17.40
2022-10-15T15:48:53.096Z,17.30
2022-10-15T15:51:26.855Z,20.50
2022-10-15T15:57:05.443Z,17.20
2022-10-15T15:59:39.711Z,17.00
2022-10-15T16:02:08.443Z,14.30
2022-10-15T16:04:40.241Z,17.20
2022-10-15T16:07:13.587Z,18.50
2022-10-15T16:09:42.748Z,18.60
2022-10-15T16:12:11.731Z,28.40
2022-10-15T16:14:40.346Z,15.50
2022-10-15T16:17:09.158Z,15.50
2022-10-15T16:19:37.837Z,18.40
2022-10-15T16:22:06.641Z,19.50
2022-10-15T16:24:35.845Z,15.70
2022-10-15T16:27:21.171Z,19.00
2022-10-15T16:29:49.802Z,19.60
2022-10-15T16:32:20.173Z,21.60
2022-10-15T16:34:49.341Z,19.00
2022-10-15T16:37:18.937Z,21.10
2022-10-15T16:39:50.299Z,18.10
2022-10-15T16:42:18.923Z,21.40
2022-10-15T16:44:47.594Z,18.40
2022-10-15T16:47:16.204Z,19.20
2022-10-15T16:49:44.909Z,16.70
2022-10-15T16:52:16.322Z,19.30
2022-10-15T16:54:47.491Z,26.50
2022-10-15T16:57:16.310Z,20.70
2022-10-15T16:59:44.994Z,18.30
2022-10-15T17:02:13.659Z,18.90
2022-10-15T17:04:42.340Z,19.40
2022-10-15T17:07:10.965Z,20.80
2022-10-15T17:09:40.235Z,17.10
2022-10-15T17:12:09.098Z,18.90
2022-10-15T17:14:37.803Z,16.30
2022-10-15T17:17:07.804Z,20.50
2022-10-15T17:19:36.489Z,21.90
2022-10-15T17:22:05.125Z,23.10
2022-10-15T17:24:33.873Z,26.80
2022-10-15T17:27:02.527Z,24.00
2022-10-15T17:29:33.553Z,21.00
2022-10-15T17:32:03.048Z,22.80
2022-10-15T17:34:31.778Z,20.30
2022-10-15T17:37:00.489Z,24.20
2022-10-15T17:39:29.140Z,22.80
2022-10-15T17:41:58.137Z,19.50
2022-10-15T17:44:27.123Z,23.90
2022-10-15T17:46:55.761Z,24.00
2022-10-15T17:49:24.471Z,24.70
2022-10-15T17:51:53.155Z,20.80
2022-10-15T17:54:21.833Z,20.20
2022-10-15T17:56:50.523Z,22.50
2022-10-15T17:59:23.526Z,24.60
2022-10-15T18:02:12.472Z,22.70
2022-10-15T18:04:46.859Z,22.40
2022-10-15T18:07:17.816Z,22.70
2022-10-15T18:09:46.577Z,20.60
2022-10-15T18:12:15.777Z,21.10
2022-10-15T18:14:44.367Z,23.90
2022-10-15T18:17:15.288Z,23.00
2022-10-15T18:22:47.749Z,23.90
2022-10-15T18:25:16.540Z,22.10
2022-10-15T18:27:55.593Z,22.00
2022-10-15T18:30:36.516Z,22.20
2022-10-15T18:33:05.791Z,23.30
2022-10-15T18:35:42.879Z,22.30
2022-10-15T18:41:22.463Z,27.40
2022-10-15T18:43:52.262Z,21.20
2022-10-15T18:46:21.229Z,21.10
2022-10-15T18:48:50.313Z,21.70
2022-10-15T18:51:19.209Z,23.40
2022-10-15T18:53:48.017Z,20.50
2022-10-15T18:56:16.853Z,24.80
2022-10-15T18:58:45.789Z,24.50
2022-10-15T19:01:24.815Z,23.50
2022-10-15T19:03:57.268Z,22.10
2022-10-15T19:06:28.634Z,23.50
2022-10-15T19:08:57.802Z,23.30
2022-10-15T19:11:26.693Z,22.90
2022-10-15T19:13:59.570Z,25.20
2022-10-15T19:18:56.839Z,20.10
2022-10-15T19:21:25.592Z,23.50
2022-10-15T19:23:54.320Z,26.80
2022-10-15T19:26:23.051Z,22.20
2022-10-15T19:28:52.285Z,25.00
2022-10-15T19:31:28.315Z,26.30
2022-10-15T19:34:00.473Z,22.30
2022-10-15T19:36:31.956Z,23.70
2022-10-15T19:39:01.446Z,24.70
2022-10-15T19:41:30.057Z,23.10
2022-10-15T19:43:58.939Z,18.90
2022-10-15T19:46:29.301Z,17.40
2022-10-15T19:48:57.932Z,23.00
2022-10-15T19:51:26.566Z,18.40
2022-10-15T19:53:56.495Z,23.40
2022-10-15T19:56:25.721Z,24.40
2022-10-15T19:58:55.896Z,22.60
2022-10-15T20:01:28.390Z,22.70
2022-10-15T20:04:00.303Z,20.80
2022-10-15T20:06:32.845Z,20.90
2022-10-15T20:09:02.268Z,16.90
2022-10-15T20:11:31.373Z,19.50
2022-10-15T20:14:00.660Z,21.90
2022-10-15T20:16:32.833Z,20.90
2022-10-15T20:21:31.279Z,19.50
2022-10-15T20:24:04.159Z,20.20
2022-10-15T20:26:33.778Z,26.90
2022-10-15T20:29:02.764Z,20.50
2022-10-15T20:31:33.255Z,23.20
2022-10-15T20:34:03.013Z,17.30
2022-10-15T20:36:32.691Z,20.20
2022-10-15T20:39:01.561Z,18.80
2022-10-15T20:41:30.280Z,20.80
2022-10-15T20:43:58.881Z,21.80
2022-10-15T20:46:30.009Z,21.10
2022-10-15T20:49:02.217Z,20.80
2022-10-15T20:51:33.400Z,21.70
2022-10-15T20:54:02.225Z,19.50
2022-10-15T20:56:30.916Z,18.30
2022-10-15T20:58:59.562Z,22.30
2022-10-15T21:01:28.220Z,22.10
2022-10-15T21:03:57.091Z,20.60
2022-10-15T21:06:25.906Z,22.50
2022-10-15T21:08:54.512Z,19.40
2022-10-15T21:11:23.349Z,16.10
2022-10-15T21:13:51.969Z,21.30
2022-10-15T21:16:23.330Z,19.80
2022-10-15T21:18:54.706Z,23.50
2022-10-15T21:21:23.627Z,22.10
2022-10-15T21:23:52.379Z,23.30
2022-10-15T21:26:21.501Z,25.80
2022-10-15T21:29:15.078Z,20.20
2022-10-15T21:31:43.936Z,18.90
2022-10-15T21:34:12.912Z,19.70
2022-10-15T21:36:41.793Z,20.10
2022-10-15T21:39:10.418Z,21.90
2022-10-15T21:41:39.732Z,23.20
2022-10-15T21:44:08.625Z,22.40
2022-10-15T21:46:39.515Z,26.60
2022-10-15T21:49:11.065Z,21.60
2022-10-15T21:51:40.009Z,21.00
2022-10-15T21:54:09.846Z,22.30
2022-10-15T21:56:38.765Z,22.30
2022-10-15T21:59:07.439Z,26.50
2022-10-15T22:01:37.940Z,25.10
2022-10-15T22:04:07.680Z,20.60
2022-10-15T22:06:37.208Z,23.00
2022-10-15T22:09:06.905Z,24.70
2022-10-15T22:11:37.116Z,19.10
2022-10-15T22:14:07.054Z,24.50
2022-10-15T22:16:36.746Z,21.70
2022-10-15T22:19:05.908Z,19.80
2022-10-15T22:21:36.510Z,21.60
2022-10-15T22:24:07.176Z,26.10
2022-10-15T22:26:37.716Z,22.90
2022-10-15T22:29:07.533Z,24.80
2022-10-15T22:31:36.449Z,20.40
2022-10-15T22:34:05.072Z,22.70
2022-10-15T22:36:33.682Z,16.70
2022-10-15T22:39:05.030Z,20.30
2022-10-15T22:41:35.388Z,22.00
2022-10-15T22:44:04.074Z,22.10
2022-10-15T22:46:33.930Z,24.20
2022-10-15T22:49:02.635Z,20.20
2022-10-15T22:51:31.324Z,21.10
2022-10-15T22:54:00.552Z,21.70
2022-10-15T22:56:29.411Z,19.10
2022-10-15T22:58:58.346Z,18.50
2022-10-15T23:01:28.539Z,19.20
2022-10-15T23:03:58.548Z,25.00
2022-10-15T23:06:27.826Z,22.00
2022-10-15T23:08:56.993Z,20.80
2022-10-15T23:11:27.607Z,21.60
2022-10-15T23:13:57.904Z,19.30
2022-10-15T23:16:28.173Z,17.70
2022-10-15T23:18:58.610Z,18.30
2022-10-15T23:21:46.221Z,22.40
2022-10-15T23:24:15.411Z,23.10
2022-10-15T23:26:44.066Z,23.20
2022-10-15T23:29:30.876Z,18.90
2022-10-15T23:31:59.620Z,19.80
2022-10-15T23:34:28.310Z,21.90
2022-10-15T23:36:56.970Z,17.80
2022-10-15T23:39:26.620Z,18.90
2022-10-15T23:41:55.406Z,25.00
2022-10-15T23:44:25.874Z,19.00
2022-10-15T23:46:54.927Z,23.20
2022-10-15T23:49:23.580Z,21.50
2022-10-15T23:51:52.237Z,21.70
2022-10-15T23:54:20.878Z,16.00
2022-10-15T23:56:49.534Z,18.30
2022-10-15T23:59:18.550Z,22.20
